Time;durP1;ratioP1;P1;durP2;ratioP2;P2;SDS_P1;SDS_P2;PMS_P1;PMS_P2;Temp;Humidity;BMP_temperature;BMP_pressure;BME280_temperature;BME280_humidity;BME280_pressure;Samples;Min_cycle;Max_cycle;Signal;HPM_P1;HPM_P2
2021/09/20 00:00:51;;;;;;;8.63;5.83;;;18.50;54.60;;;;;;5033640;28;20177;-83
2021/09/20 00:03:31;;;;;;;7.30;5.57;;;18.60;55.00;;;;;;5034251;28;20171;-84
2021/09/20 00:05:58;;;;;;;7.17;5.13;;;18.50;59.60;;;;;;5033210;28;20260;-83
2021/09/20 00:08:23;;;;;;;6.03;5.17;;;18.30;58.50;;;;;;5032978;28;20604;-84
2021/09/20 00:11:10;;;;;;;6.97;5.10;;;18.10;59.60;;;;;;5035731;28;20194;-85
2021/09/20 00:13:48;;;;;;;5.63;4.93;;;18.00;63.40;;;;;;5037903;28;20205;-84
2021/09/20 00:16:14;;;;;;;7.93;5.40;;;17.90;65.10;;;;;;5037187;28;20273;-84
2021/09/20 00:18:39;;;;;;;6.70;5.70;;;17.90;67.30;;;;;;5043602;28;20220;-85
2021/09/20 00:21:05;;;;;;;9.53;6.33;;;18.00;66.20;;;;;;5060579;28;20166;-84
2021/09/20 00:23:31;;;;;;;6.20;5.60;;;18.10;64.40;;;;;;5061608;28;20159;-84
2021/09/20 00:26:02;;;;;;;7.77;5.00;;;18.10;63.30;;;;;;5061739;28;20158;-84
2021/09/20 00:28:28;;;;;;;9.03;5.33;;;18.20;61.30;;;;;;5061659;28;20173;-83
2021/09/20 00:31:00;;;;;;;7.10;5.60;;;18.30;58.30;;;;;;5060362;28;20185;-84
2021/09/20 00:33:29;;;;;;;6.30;5.07;;;18.30;58.90;;;;;;5060796;28;20237;-83
2021/09/20 00:35:58;;;;;;;7.30;5.77;;;18.30;60.50;;;;;;5060841;28;20162;-80
2021/09/20 00:38:26;;;;;;;7.97;5.20;;;18.20;60.50;;;;;;5061110;28;20335;-82
2021/09/20 00:40:53;;;;;;;6.00;5.20;;;18.20;61.00;;;;;;5046410;28;20564;-84
2021/09/20 00:43:19;;;;;;;7.87;5.60;;;18.10;63.00;;;;;;5041446;28;20178;-84
2021/09/20 00:45:45;;;;;;;8.20;5.37;;;18.10;62.80;;;;;;5039134;28;20257;-85
2021/09/20 00:48:10;;;;;;;7.43;5.60;;;17.90;61.30;;;;;;5038589;28;20181;-84
2021/09/20 00:50:45;;;;;;;6.73;5.50;;;18.30;60.00;;;;;;5037355;28;20194;-85
2021/09/20 00:53:33;;;;;;;6.50;5.40;;;18.10;62.40;;;;;;5036499;28;20557;-84
2021/09/20 00:56:01;;;;;;;7.57;5.80;;;18.00;63.80;;;;;;5036003;28;20666;-84
2021/09/20 00:58:27;;;;;;;6.10;5.33;;;18.10;63.70;;;;;;5035866;28;20169;-83
2021/09/20 01:00:53;;;;;;;6.87;5.77;;;18.20;62.90;;;;;;5035416;28;20169;-83
2021/09/20 01:03:19;;;;;;;7.87;5.37;;;18.40;60.50;;;;;;5036203;28;20173;-84
2021/09/20 01:05:45;;;;;;;6.40;5.17;;;18.20;59.90;;;;;;5035491;28;20180;-83
2021/09/20 01:08:11;;;;;;;6.63;5.37;;;18.20;62.10;;;;;;5035998;28;20266;-83
2021/09/20 01:10:37;;;;;;;6.03;5.43;;;18.40;59.50;;;;;;5035184;28;20174;-82
2021/09/20 01:13:03;;;;;;;7.20;5.47;;;18.50;57.50;;;;;;5035669;28;20236;-84
2021/09/20 01:15:29;;;;;;;6.47;5.40;;;18.60;54.00;;;;;;5035023;28;20174;-83
2021/09/20 01:17:55;;;;;;;7.70;5.83;;;18.60;53.00;;;;;;5034965;28;20615;-82
2021/09/20 01:20:28;;;;;;;7.00;5.93;;;18.60;52.80;;;;;;5034999;28;20659;-83
2021/09/20 01:23:04;;;;;;;8.57;5.40;;;18.60;52.80;;;;;;5035438;28;20174;-83
2021/09/20 01:25:31;;;;;;;6.53;5.30;;;18.50;52.20;;;;;;5034792;28;20179;-83
2021/09/20 01:27:57;;;;;;;7.50;5.80;;;18.30;53.90;;;;;;5035387;28;20618;-82
2021/09/20 01:30:23;;;;;;;7.43;5.60;;;18.30;56.60;;;;;;5035084;28;20182;-82
2021/09/20 01:32:50;;;;;;;7.53;6.23;;;18.40;57.00;;;;;;5035271;28;20282;-83
2021/09/20 01:35:18;;;;;;;8.63;5.83;;;18.50;55.30;;;;;;5035205;28;20172;-82
2021/09/20 01:37:44;;;;;;;6.60;5.73;;;18.60;53.20;;;;;;5034941;28;20512;-83
2021/09/20 01:40:11;;;;;;;7.10;5.80;;;18.70;51.70;;;;;;5035217;28;20178;-82
2021/09/20 01:42:38;;;;;;;6.67;5.97;;;18.60;50.10;;;;;;5036455;28;20197;-83
2021/09/20 01:45:05;;;;;;;6.43;5.73;;;18.40;52.80;;;;;;5034829;28;20248;-83
2021/09/20 01:47:30;;;;;;;6.53;5.60;;;18.20;55.70;;;;;;5034839;28;20178;-83
2021/09/20 01:49:56;;;;;;;9.50;5.93;;;18.30;57.10;;;;;;5035894;28;20256;-84
2021/09/20 01:52:22;;;;;;;7.40;5.63;;;18.40;55.50;;;;;;5035291;28;20679;-84
2021/09/20 01:54:48;;;;;;;7.17;5.47;;;18.50;53.70;;;;;;5034764;28;20181;-84
2021/09/20 01:57:13;;;;;;;6.63;5.57;;;18.70;51.50;;;;;;5038500;28;20230;-82
2021/09/20 01:59:39;;;;;;;7.33;5.80;;;18.70;51.10;;;;;;5042879;28;20173;-83
2021/09/20 02:02:05;;;;;;;7.47;6.67;;;18.60;53.50;;;;;;5042660;28;20175;-83
2021/09/20 02:04:31;;;;;;;8.20;6.70;;;18.40;57.30;;;;;;5035829;28;20177;-83
2021/09/20 02:06:57;;;;;;;7.63;6.87;;;18.00;70.30;;;;;;5034814;28;20199;-83
2021/09/20 02:09:23;;;;;;;7.83;7.03;;;17.80;75.80;;;;;;5034709;28;20259;-84
2021/09/20 02:11:49;;;;;;;8.83;7.37;;;17.40;82.00;;;;;;5034357;28;20228;-84
2021/09/20 02:14:15;;;;;;;8.20;7.17;;;17.30;86.50;;;;;;5034052;28;20173;-82
2021/09/20 02:16:41;;;;;;;8.67;6.97;;;17.30;87.00;;;;;;5034466;28;20183;-83
2021/09/20 02:19:09;;;;;;;8.97;7.47;;;17.30;85.80;;;;;;5034315;28;20193;-83
2021/09/20 02:21:35;;;;;;;8.00;6.77;;;17.20;85.90;;;;;;5033881;28;20272;-84
2021/09/20 02:24:00;;;;;;;8.77;7.33;;;17.10;87.50;;;;;;5034138;28;20537;-84
2021/09/20 02:26:26;;;;;;;8.20;7.23;;;17.00;89.00;;;;;;5033812;28;20173;-83
2021/09/20 02:28:52;;;;;;;9.63;8.07;;;17.00;89.50;;;;;;5034849;28;20158;-82
2021/09/20 02:31:19;;;;;;;11.77;7.73;;;17.00;89.90;;;;;;5039161;28;20205;-82
2021/09/20 02:33:45;;;;;;;9.83;8.23;;;17.00;90.70;;;;;;5038698;28;20185;-82
2021/09/20 02:36:11;;;;;;;11.33;8.17;;;16.80;90.90;;;;;;5038389;28;20222;-83
2021/09/20 02:38:37;;;;;;;8.70;7.80;;;16.80;92.00;;;;;;5040176;28;20182;-84
2021/09/20 02:41:04;;;;;;;9.33;8.23;;;16.90;91.70;;;;;;5035754;28;20641;-85
2021/09/20 02:43:29;;;;;;;9.63;7.83;;;16.90;91.20;;;;;;5033386;28;20259;-84
2021/09/20 02:45:55;;;;;;;11.43;8.47;;;16.80;91.10;;;;;;5033702;28;20212;-83
2021/09/20 02:48:22;;;;;;;9.03;7.70;;;16.80;91.20;;;;;;5034621;28;20256;-82
2021/09/20 02:50:49;;;;;;;10.70;8.23;;;16.70;91.40;;;;;;5033517;28;20162;-83
2021/09/20 02:53:15;;;;;;;8.90;7.97;;;16.70;92.50;;;;;;5033453;28;20188;-84
2021/09/20 02:55:44;;;;;;;9.97;8.40;;;16.70;91.60;;;;;;5033541;28;20580;-84
2021/09/20 02:58:11;;;;;;;9.40;8.03;;;16.70;92.10;;;;;;5033324;28;20664;-83
2021/09/20 03:00:37;;;;;;;11.00;8.00;;;16.80;91.80;;;;;;5033587;28;20200;-83
2021/09/20 03:03:05;;;;;;;9.10;8.00;;;16.70;92.30;;;;;;5033385;28;20638;-84
2021/09/20 03:05:31;;;;;;;9.50;8.17;;;16.70;92.00;;;;;;5033150;28;20597;-83
2021/09/20 03:07:57;;;;;;;10.93;9.33;;;16.60;92.30;;;;;;5032950;28;20174;-83
2021/09/20 03:10:22;;;;;;;10.40;8.57;;;16.70;91.70;;;;;;5034549;28;20170;-84
2021/09/20 03:12:48;;;;;;;10.57;8.30;;;16.60;91.80;;;;;;5033599;28;20278;-84
2021/09/20 03:15:14;;;;;;;10.73;8.53;;;16.50;91.90;;;;;;5035882;28;20736;-83
2021/09/20 03:17:40;;;;;;;9.40;7.93;;;16.50;92.60;;;;;;5044992;28;20180;-83
2021/09/20 03:20:06;;;;;;;9.43;7.43;;;16.50;92.80;;;;;;5042511;28;20190;-84
2021/09/20 03:22:32;;;;;;;12.47;8.50;;;16.50;92.70;;;;;;5041181;28;20174;-84
2021/09/20 03:24:57;;;;;;;10.33;8.70;;;16.50;92.10;;;;;;5034551;28;20680;-83
2021/09/20 03:27:23;;;;;;;9.63;8.33;;;16.70;91.80;;;;;;5033283;28;20232;-83
2021/09/20 03:29:50;;;;;;;11.67;9.00;;;16.40;92.30;;;;;;5033346;28;20736;-83
2021/09/20 03:32:18;;;;;;;10.73;8.80;;;16.40;92.80;;;;;;5033404;28;20255;-83
2021/09/20 03:34:43;;;;;;;10.63;8.13;;;16.30;93.10;;;;;;5033405;28;20200;-83
2021/09/20 03:37:09;;;;;;;10.00;9.00;;;16.30;93.70;;;;;;5033056;28;20630;-83
2021/09/20 03:39:34;;;;;;;11.03;8.47;;;16.20;93.70;;;;;;5033262;28;20183;-82
2021/09/20 03:42:00;;;;;;;10.67;8.70;;;16.20;94.00;;;;;;5037265;28;20276;-82
2021/09/20 03:44:26;;;;;;;13.13;9.97;;;16.20;94.40;;;;;;5038580;28;20169;-85
2021/09/20 03:46:52;;;;;;;11.67;9.30;;;16.10;94.70;;;;;;5038213;28;20180;-84
2021/09/20 03:49:18;;;;;;;11.90;9.47;;;15.80;95.10;;;;;;5039269;28;20193;-83
2021/09/20 03:51:46;;;;;;;11.27;9.67;;;15.90;95.40;;;;;;5045330;28;20227;-81
2021/09/20 03:54:11;;;;;;;11.80;10.40;;;15.70;96.70;;;;;;5056709;28;20225;-83
2021/09/20 03:56:40;;;;;;;11.70;9.93;;;15.90;97.30;;;;;;5054180;28;20184;-84
2021/09/20 03:59:05;;;;;;;12.10;10.53;;;15.60;97.80;;;;;;5056493;28;20216;-85
2021/09/20 04:01:31;;;;;;;13.73;10.57;;;15.60;97.60;;;;;;5055057;28;20157;-84
2021/09/20 04:03:58;;;;;;;14.47;11.27;;;15.60;97.50;;;;;;5046966;28;20184;-84
2021/09/20 04:06:25;;;;;;;15.07;11.13;;;15.70;98.00;;;;;;5041031;28;20257;-83
2021/09/20 04:09:01;;;;;;;15.17;10.87;;;15.70;97.00;;;;;;5040410;28;20169;-83
2021/09/20 04:11:28;;;;;;;14.63;11.50;;;15.70;96.60;;;;;;5034572;28;20619;-84
2021/09/20 04:14:09;;;;;;;14.07;10.80;;;15.60;96.90;;;;;;5033935;28;20173;-84
2021/09/20 04:16:37;;;;;;;14.00;11.87;;;15.50;97.20;;;;;;5032930;28;20166;-84
2021/09/20 04:19:03;;;;;;;15.90;11.33;;;15.60;97.40;;;;;;5032593;28;20189;-84
2021/09/20 04:21:30;;;;;;;13.00;11.23;;;15.40;97.40;;;;;;5032986;28;20177;-84
2021/09/20 04:23:55;;;;;;;14.03;11.67;;;15.40;97.30;;;;;;5032123;28;20179;-84
2021/09/20 04:26:21;;;;;;;13.50;11.30;;;15.40;97.50;;;;;;5032570;28;20618;-84
2021/09/20 04:28:47;;;;;;;13.40;10.87;;;15.40;97.50;;;;;;5033176;28;20231;-83
2021/09/20 04:31:12;;;;;;;13.43;11.43;;;15.40;97.20;;;;;;5032450;28;20293;-84
2021/09/20 04:33:38;;;;;;;12.87;10.53;;;15.30;97.30;;;;;;5033142;28;20181;-83
2021/09/20 04:36:04;;;;;;;14.73;12.07;;;15.30;98.00;;;;;;5038804;28;20196;-84
2021/09/20 04:38:31;;;;;;;14.10;11.03;;;15.20;98.20;;;;;;5056509;28;20203;-84
2021/09/20 04:40:56;;;;;;;13.30;11.60;;;15.20;98.60;;;;;;5056953;28;20158;-83
2021/09/20 04:43:22;;;;;;;14.23;11.03;;;15.10;98.70;;;;;;5057143;28;20184;-83
2021/09/20 04:45:48;;;;;;;15.13;11.13;;;15.30;98.90;;;;;;5055472;28;20175;-82
2021/09/20 04:48:14;;;;;;;14.43;11.90;;;15.20;98.90;;;;;;5054498;28;20173;-83
2021/09/20 04:50:57;;;;;;;13.57;11.30;;;15.10;98.70;;;;;;5035172;28;20198;-84
2021/09/20 04:53:26;;;;;;;12.27;10.57;;;14.90;98.90;;;;;;5033276;28;20262;-83
2021/09/20 04:55:55;;;;;;;14.87;10.73;;;14.90;99.20;;;;;;5034152;28;20191;-83
2021/09/20 04:58:20;;;;;;;13.27;11.57;;;15.00;99.60;;;;;;5034924;28;20179;-83
2021/09/20 05:00:48;;;;;;;14.73;11.33;;;15.00;99.50;;;;;;5036748;28;20177;-85
2021/09/20 05:03:15;;;;;;;12.17;10.83;;;15.00;99.60;;;;;;5037244;28;20176;-84
2021/09/20 05:05:40;;;;;;;11.50;10.30;;;15.10;99.70;;;;;;5036986;28;20161;-83
2021/09/20 05:08:06;;;;;;;14.23;10.17;;;15.00;99.50;;;;;;5037140;28;20537;-83
2021/09/20 05:10:33;;;;;;;11.90;10.40;;;15.00;99.40;;;;;;5041639;28;20217;-83
2021/09/20 05:12:59;;;;;;;13.23;11.03;;;15.00;99.70;;;;;;5058466;28;20256;-84
2021/09/20 05:15:25;;;;;;;14.60;10.90;;;15.10;99.50;;;;;;5059555;28;20177;-84
2021/09/20 05:17:51;;;;;;;14.40;10.20;;;15.00;99.30;;;;;;5058896;28;20167;-83
2021/09/20 05:20:20;;;;;;;12.30;10.47;;;15.00;99.70;;;;;;5059506;28;20202;-83
2021/09/20 05:22:46;;;;;;;12.37;10.13;;;15.20;99.90;;;;;;5058489;28;20177;-82
2021/09/20 05:25:13;;;;;;;13.40;10.27;;;14.90;99.90;;;;;;5054541;28;20184;-83
2021/09/20 05:27:39;;;;;;;16.00;10.77;;;14.80;99.90;;;;;;5050837;28;20187;-84
2021/09/20 05:30:23;;;;;;;11.93;9.47;;;14.90;99.90;;;;;;5048716;28;20841;-84
2021/09/20 05:33:34;;;;;;;13.57;10.80;;;14.70;99.90;;;;;;5024805;28;20219;-84
2021/09/20 05:36:03;;;;;;;17.07;10.30;;;14.70;99.90;;;;;;5036921;28;20178;-84
2021/09/20 05:38:30;;;;;;;14.00;10.43;;;14.60;99.90;;;;;;5036981;28;20182;-84
2021/09/20 05:41:02;;;;;;;12.03;10.67;;;14.70;99.90;;;;;;5039239;28;20172;-85
2021/09/20 05:43:30;;;;;;;14.50;12.13;;;14.70;99.90;;;;;;5038157;28;20180;-85
2021/09/20 05:45:56;;;;;;;15.40;10.73;;;14.70;99.90;;;;;;5036356;28;20643;-85
2021/09/20 05:48:23;;;;;;;13.77;11.30;;;14.70;99.90;;;;;;5036486;28;20305;-85
2021/09/20 05:50:48;;;;;;;14.90;11.03;;;14.70;99.90;;;;;;5035693;28;20518;-84
2021/09/20 05:53:15;;;;;;;15.10;10.63;;;14.70;99.90;;;;;;5038272;28;20191;-83
2021/09/20 05:55:41;;;;;;;15.27;11.20;;;14.80;99.90;;;;;;5037631;28;20210;-84
2021/09/20 05:58:07;;;;;;;13.47;10.50;;;14.80;99.90;;;;;;5035206;28;20540;-84
2021/09/20 06:00:33;;;;;;;12.20;10.13;;;14.80;99.90;;;;;;5036061;28;20271;-82
2021/09/20 06:02:59;;;;;;;15.10;10.87;;;14.90;99.90;;;;;;5037462;28;20208;-84
2021/09/20 06:05:26;;;;;;;15.17;10.27;;;14.90;99.90;;;;;;5035885;28;20178;-82
2021/09/20 06:07:52;;;;;;;14.87;11.20;;;14.90;99.90;;;;;;5035175;28;20175;-83
2021/09/20 06:10:18;;;;;;;13.90;10.13;;;15.00;99.90;;;;;;5033605;28;20270;-85
2021/09/20 06:12:46;;;;;;;15.00;10.57;;;14.90;99.90;;;;;;5033201;28;20222;-84
2021/09/20 06:15:14;;;;;;;14.93;9.87;;;14.80;99.90;;;;;;5034882;28;20193;-82
2021/09/20 06:17:41;;;;;;;14.93;10.23;;;14.80;99.90;;;;;;5018603;28;20168;-84
2021/09/20 06:20:08;;;;;;;12.67;10.53;;;14.80;99.90;;;;;;5034758;28;20196;-84
2021/09/20 06:22:35;;;;;;;13.10;11.20;;;14.70;99.90;;;;;;5034179;28;20172;-84
2021/09/20 06:25:01;;;;;;;13.20;11.10;;;14.70;99.90;;;;;;5035653;28;20176;-83
2021/09/20 06:27:27;;;;;;;15.80;11.47;;;14.80;99.90;;;;;;5035448;28;20192;-81
2021/09/20 06:29:54;;;;;;;15.13;11.70;;;14.80;99.90;;;;;;5035495;28;20213;-85
2021/09/20 06:32:19;;;;;;;12.67;10.63;;;14.90;99.90;;;;;;5035433;28;20203;-86
2021/09/20 06:34:48;;;;;;;15.30;11.27;;;14.90;98.90;;;;;;5036495;28;20169;-91
2021/09/20 06:37:15;;;;;;;15.20;11.30;;;14.90;98.50;;;;;;5036777;28;20179;-86
2021/09/20 06:39:42;;;;;;;14.50;11.03;;;15.00;98.00;;;;;;5037562;28;20637;-86
2021/09/20 06:42:08;;;;;;;16.80;11.83;;;15.00;97.20;;;;;;5041575;28;20190;-82
2021/09/20 06:44:35;;;;;;;13.20;11.23;;;15.00;96.80;;;;;;5054635;28;20199;-80
2021/09/20 06:47:00;;;;;;;14.13;10.77;;;15.00;96.10;;;;;;5053927;28;20180;-81
2021/09/20 06:49:28;;;;;;;14.60;11.47;;;15.10;96.40;;;;;;5055134;28;20235;-82
2021/09/20 06:51:55;;;;;;;16.07;11.20;;;15.00;96.70;;;;;;5044003;28;20214;-84
2021/09/20 06:54:21;;;;;;;14.43;11.40;;;15.10;96.20;;;;;;5042333;28;20172;-84
2021/09/20 06:56:48;;;;;;;13.73;10.83;;;15.00;95.50;;;;;;5040558;28;20272;-84
2021/09/20 06:59:20;;;;;;;14.83;10.93;;;15.00;95.40;;;;;;5041743;28;20172;-83
2021/09/20 07:01:47;;;;;;;12.87;10.97;;;15.00;95.50;;;;;;5040283;28;20162;-83
2021/09/20 07:04:16;;;;;;;12.90;10.87;;;15.10;95.20;;;;;;5037811;28;20206;-86
2021/09/20 07:06:45;;;;;;;12.90;10.83;;;15.10;94.70;;;;;;5039640;28;20192;-82
2021/09/20 07:09:22;;;;;;;13.10;10.40;;;14.90;94.60;;;;;;5051420;28;20191;-82
2021/09/20 07:11:48;;;;;;;13.83;10.77;;;14.90;94.60;;;;;;5027243;28;20240;-85
2021/09/20 07:14:14;;;;;;;15.63;11.50;;;14.80;95.50;;;;;;5042187;28;20176;-82
2021/09/20 07:16:41;;;;;;;14.20;11.47;;;14.70;96.00;;;;;;5047544;28;20169;-82
2021/09/20 07:19:07;;;;;;;17.00;11.77;;;14.80;95.70;;;;;;5040626;28;20218;-83
2021/09/20 07:21:37;;;;;;;14.20;11.57;;;15.00;94.70;;;;;;5035285;28;20166;-81
2021/09/20 07:24:03;;;;;;;17.07;11.13;;;15.00;92.60;;;;;;5042446;28;20176;-84
2021/09/20 07:26:30;;;;;;;17.83;11.23;;;14.90;93.00;;;;;;5033090;28;20265;-85
2021/09/20 07:28:56;;;;;;;15.73;11.03;;;15.10;92.60;;;;;;5033082;28;20170;-83
2021/09/20 07:31:23;;;;;;;13.23;10.83;;;15.20;90.80;;;;;;5034324;28;20200;-84
2021/09/20 07:33:49;;;;;;;18.77;11.33;;;15.00;88.70;;;;;;5023033;28;20182;-82
2021/09/20 07:36:16;;;;;;;12.23;10.93;;;15.20;88.90;;;;;;5034112;28;20766;-82
2021/09/20 07:38:43;;;;;;;13.03;11.40;;;15.10;90.30;;;;;;5033653;28;20172;-84
2021/09/20 07:41:09;;;;;;;16.30;12.23;;;15.20;90.80;;;;;;5033203;28;20169;-81
2021/09/20 07:43:35;;;;;;;14.93;12.13;;;15.10;90.40;;;;;;5036824;28;20170;-81
2021/09/20 07:46:01;;;;;;;15.50;11.13;;;15.30;90.60;;;;;;5034968;28;20169;-84
2021/09/20 07:48:27;;;;;;;13.97;11.27;;;15.40;88.50;;;;;;5033344;28;20530;-83
2021/09/20 07:50:54;;;;;;;14.80;11.37;;;15.50;84.30;;;;;;5034661;28;20174;-83
2021/09/20 07:53:25;;;;;;;14.43;11.47;;;15.60;83.30;;;;;;5035116;28;20673;-85
2021/09/20 07:55:50;;;;;;;16.87;11.43;;;15.70;78.90;;;;;;5036037;28;20201;-84
2021/09/20 07:58:17;;;;;;;12.13;10.30;;;15.80;77.00;;;;;;5036524;28;20588;-85
2021/09/20 08:00:44;;;;;;;18.43;11.67;;;16.00;73.40;;;;;;5037533;28;20173;-82
2021/09/20 08:03:10;;;;;;;14.97;11.17;;;16.10;70.80;;;;;;5036299;28;20188;-83
2021/09/20 08:05:42;;;;;;;11.77;10.50;;;16.30;66.20;;;;;;5035810;28;20173;-84
2021/09/20 08:08:08;;;;;;;14.23;10.03;;;16.40;58.00;;;;;;5035251;28;20174;-83
2021/09/20 08:10:35;;;;;;;13.67;9.90;;;16.30;54.80;;;;;;5038111;28;20181;-82
2021/09/20 08:13:03;;;;;;;12.77;10.23;;;16.20;55.60;;;;;;5039645;28;20205;-84
2021/09/20 08:15:30;;;;;;;10.97;8.97;;;16.20;61.30;;;;;;5022938;28;20181;-83
2021/09/20 08:17:56;;;;;;;11.93;10.10;;;16.30;56.30;;;;;;5057192;28;20642;-82
2021/09/20 08:20:23;;;;;;;12.47;9.93;;;16.30;53.00;;;;;;5043956;28;20158;-83
2021/09/20 08:22:49;;;;;;;12.27;10.03;;;16.60;50.00;;;;;;5057227;28;20190;-84
2021/09/20 08:25:20;;;;;;;12.77;10.03;;;16.50;49.30;;;;;;5055831;28;20150;-80
2021/09/20 08:27:47;;;;;;;11.37;9.73;;;16.40;46.90;;;;;;5057343;28;20157;-85
2021/09/20 08:30:13;;;;;;;9.17;7.70;;;16.50;44.60;;;;;;5052866;28;20177;-82
2021/09/20 08:32:58;;;;;;;11.40;8.00;;;16.30;32.10;;;;;;5049990;28;20216;-84
2021/09/20 08:35:31;;;;;;;15.67;9.20;;;16.20;34.60;;;;;;5042860;28;20177;-83
2021/09/20 08:38:06;;;;;;;12.47;8.53;;;16.30;35.50;;;;;;5056850;28;20165;-83
2021/09/20 08:40:33;;;;;;;13.33;8.63;;;16.50;34.10;;;;;;5039689;28;20248;-84
2021/09/20 08:43:00;;;;;;;13.33;9.27;;;16.60;36.50;;;;;;5037802;28;20197;-83
2021/09/20 08:45:27;;;;;;;13.27;9.50;;;16.70;31.70;;;;;;5039727;28;20173;-85
2021/09/20 08:47:57;;;;;;;10.50;9.37;;;16.80;32.90;;;;;;5039438;28;20212;-86
2021/09/20 08:50:26;;;;;;;12.20;10.20;;;16.90;27.20;;;;;;5040424;28;20713;-85
2021/09/20 08:52:53;;;;;;;10.70;9.33;;;16.90;28.90;;;;;;5038084;28;20218;-83
2021/09/20 08:55:18;;;;;;;16.27;9.70;;;17.10;29.60;;;;;;5037424;28;20324;-82
2021/09/20 08:57:45;;;;;;;19.33;9.30;;;17.20;30.50;;;;;;5037988;28;20223;-86
2021/09/20 09:00:12;;;;;;;11.77;9.40;;;17.00;17.40;;;;;;5037023;28;20176;-85
2021/09/20 09:02:38;;;;;;;11.10;8.63;;;17.00;21.00;;;;;;5037590;28;20183;-84
2021/09/20 09:05:26;;;;;;;13.33;10.00;;;16.70;25.70;;;;;;5039061;28;20231;-85
2021/09/20 09:08:03;;;;;;;13.57;10.57;;;16.70;28.70;;;;;;5052156;28;20238;-86
2021/09/20 09:10:34;;;;;;;12.90;9.60;;;16.70;27.10;;;;;;5060724;28;20168;-83
2021/09/20 09:13:05;;;;;;;13.10;8.63;;;16.60;24.90;;;;;;5059380;28;20209;-84
2021/09/20 09:15:31;;;;;;;12.80;9.67;;;16.60;29.40;;;;;;5057778;28;20207;-82
2021/09/20 09:17:58;;;;;;;13.37;10.17;;;16.60;28.20;;;;;;5056346;28;20610;-86
2021/09/20 09:20:31;;;;;;;12.80;10.03;;;16.50;33.70;;;;;;5039527;28;20227;-84
2021/09/20 09:23:02;;;;;;;13.80;10.50;;;16.60;35.70;;;;;;5038313;28;20219;-83
2021/09/20 09:25:48;;;;;;;18.23;11.10;;;16.50;35.90;;;;;;5021305;28;20185;-83
2021/09/20 09:28:21;;;;;;;16.53;11.37;;;16.70;35.60;;;;;;5047948;28;20193;-84
2021/09/20 09:30:54;;;;;;;21.80;10.77;;;16.70;33.50;;;;;;5052320;28;20172;-85
2021/09/20 09:33:36;;;;;;;12.77;10.83;;;16.80;37.60;;;;;;5054551;28;20193;-84
2021/09/20 09:36:04;;;;;;;17.43;10.80;;;16.90;29.20;;;;;;5053094;28;20245;-84
2021/09/20 09:38:29;;;;;;;16.13;9.97;;;17.10;26.40;;;;;;5059823;28;20169;-84
2021/09/20 09:40:59;;;;;;;13.10;9.83;;;17.30;19.60;;;;;;5057995;28;20178;-82
2021/09/20 09:43:37;;;;;;;16.13;10.87;;;17.40;17.50;;;;;;5057351;28;20167;-83
2021/09/20 09:46:25;;;;;;;11.80;10.60;;;17.50;11.80;;;;;;5057637;28;20213;-83
2021/09/20 09:48:54;;;;;;;13.53;10.77;;;17.40;16.70;;;;;;5056139;28;20193;-82
2021/09/20 09:51:23;;;;;;;12.73;10.30;;;17.50;17.00;;;;;;5054698;28;20265;-86
2021/09/20 09:53:51;;;;;;;12.40;10.10;;;17.70;12.20;;;;;;5050476;28;20186;-83
2021/09/20 09:56:26;;;;;;;12.50;10.27;;;17.60;10.20;;;;;;5056095;28;20169;-83
2021/09/20 09:58:59;;;;;;;12.13;10.73;;;17.20;17.80;;;;;;5049963;28;20192;-81
2021/09/20 10:01:36;;;;;;;14.20;10.37;;;17.50;19.80;;;;;;5055539;28;20177;-82
2021/09/20 10:04:10;;;;;;;12.37;10.87;;;17.50;12.50;;;;;;5056746;28;20174;-84
2021/09/20 10:06:57;;;;;;;13.47;10.03;;;17.60;8.70;;;;;;5045193;28;20181;-84
2021/09/20 10:09:30;;;;;;;12.03;10.03;;;18.00;5.00;;;;;;5040263;28;20273;-86
2021/09/20 10:11:58;;;;;;;12.80;10.73;;;17.90;1.00;;;;;;5039763;28;20209;-86
2021/09/20 10:14:27;;;;;;;12.53;9.33;;;17.90;1.00;;;;;;5039598;28;20231;-86
2021/09/20 10:16:56;;;;;;;14.60;9.23;;;17.90;1.00;;;;;;5039958;28;20249;-84
2021/09/20 10:19:22;;;;;;;10.30;8.17;;;17.80;1.00;;;;;;5045861;28;20253;-85
2021/09/20 10:21:50;;;;;;;10.37;8.20;;;17.70;1.00;;;;;;5039893;28;20225;-87
2021/09/20 10:24:17;;;;;;;12.37;8.20;;;17.50;1.00;;;;;;5038525;28;20178;-85
2021/09/20 10:26:44;;;;;;;12.07;8.63;;;17.40;1.00;;;;;;5036575;28;20179;-85
2021/09/20 10:29:13;;;;;;;13.77;8.97;;;17.60;1.00;;;;;;5035783;28;20166;-83
2021/09/20 10:31:43;;;;;;;12.93;8.70;;;17.60;1.00;;;;;;5037299;28;20661;-85
2021/09/20 10:34:18;;;;;;;15.27;9.43;;;17.80;1.00;;;;;;5036192;28;20192;-86
2021/09/20 10:37:05;;;;;;;18.23;9.30;;;17.50;1.00;;;;;;5036988;28;20165;-86
2021/09/20 10:39:57;;;;;;;17.43;8.53;;;17.60;1.00;;;;;;5035612;28;20170;-85
2021/09/20 10:42:46;;;;;;;12.53;8.93;;;17.50;1.00;;;;;;5036109;28;20166;-86
2021/09/20 10:45:45;;;;;;;10.27;8.60;;;17.60;1.00;;;;;;5038599;28;20193;-85
2021/09/20 10:48:14;;;;;;;13.27;9.30;;;17.70;1.00;;;;;;5035842;28;20174;-86
2021/09/20 10:50:45;;;;;;;11.90;9.30;;;17.80;1.00;;;;;;5037007;28;20186;-85
2021/09/20 10:53:32;;;;;;;13.67;9.00;;;17.90;1.00;;;;;;5036173;28;20259;-84
2021/09/20 10:56:07;;;;;;;16.13;10.00;;;17.90;1.00;;;;;;5037778;28;20189;-85
2021/09/20 10:58:42;;;;;;;12.70;9.33;;;17.70;1.00;;;;;;5039307;28;20232;-84
2021/09/20 11:01:15;;;;;;;17.07;10.70;;;17.70;1.00;;;;;;5038515;28;20170;-85
2021/09/20 11:03:51;;;;;;;12.73;9.83;;;17.70;1.00;;;;;;5037632;28;20227;-83
2021/09/20 11:06:32;;;;;;;13.40;10.00;;;17.80;1.00;;;;;;5034643;28;20271;-87
2021/09/20 11:09:03;;;;;;;13.57;9.70;;;17.70;1.00;;;;;;5041939;28;20170;-85
2021/09/20 11:11:41;;;;;;;16.23;9.77;;;17.80;1.00;;;;;;5038736;28;20197;-87
2021/09/20 11:14:09;;;;;;;11.33;8.70;;;18.00;1.00;;;;;;5045652;28;20241;-85
2021/09/20 11:16:58;;;;;;;15.47;10.43;;;17.90;1.00;;;;;;5055238;28;20180;-84
2021/09/20 11:19:33;;;;;;;13.43;9.37;;;18.00;1.00;;;;;;5049203;28;20200;-82
2021/09/20 11:22:03;;;;;;;11.80;8.97;;;18.00;1.00;;;;;;5054854;28;20158;-82
2021/09/20 11:24:30;;;;;;;12.83;9.13;;;18.10;1.00;;;;;;5053847;28;20177;-83
2021/09/20 11:26:55;;;;;;;11.17;8.40;;;18.10;1.00;;;;;;5056911;28;20170;-82
2021/09/20 11:29:26;;;;;;;14.13;9.37;;;18.20;1.00;;;;;;5052331;28;20531;-85
2021/09/20 11:31:56;;;;;;;12.10;8.53;;;18.10;1.00;;;;;;5038217;28;20201;-84
2021/09/20 11:34:42;;;;;;;11.17;8.07;;;18.00;1.00;;;;;;5044079;28;20182;-87
2021/09/20 11:37:19;;;;;;;15.63;8.97;;;18.00;1.00;;;;;;5039036;28;20197;-86
2021/09/20 11:39:48;;;;;;;13.87;9.40;;;18.10;1.00;;;;;;5036836;28;20300;-85
2021/09/20 11:42:15;;;;;;;14.60;9.17;;;18.20;1.00;;;;;;5034174;28;20170;-86
2021/09/20 11:44:55;;;;;;;12.00;8.97;;;18.20;1.00;;;;;;5034439;28;20224;-85
2021/09/20 11:47:26;;;;;;;12.43;9.43;;;18.60;1.00;;;;;;5022498;28;20197;-85
2021/09/20 11:50:09;;;;;;;11.77;8.60;;;18.50;1.00;;;;;;5040708;28;20197;-86
2021/09/20 11:52:37;;;;;;;12.33;8.63;;;18.70;1.00;;;;;;5039525;28;20241;-87
2021/09/20 11:55:10;;;;;;;12.57;9.70;;;18.80;1.00;;;;;;5038530;28;20180;-86
2021/09/20 11:57:38;;;;;;;10.27;8.30;;;19.10;1.00;;;;;;5042274;28;20177;-83
2021/09/20 12:00:08;;;;;;;13.63;9.00;;;19.40;1.00;;;;;;5054077;28;20170;-86
2021/09/20 12:02:48;;;;;;;15.37;9.20;;;19.50;1.00;;;;;;5055399;28;20158;-84
2021/09/20 12:05:25;;;;;;;15.73;9.60;;;19.40;1.00;;;;;;5052782;28;20191;-83
2021/09/20 12:07:58;;;;;;;17.10;9.30;;;19.30;1.00;;;;;;5045977;28;20157;-86
2021/09/20 12:10:33;;;;;;;13.30;8.60;;;19.30;1.00;;;;;;5042887;28;20178;-85
2021/09/20 12:13:15;;;;;;;11.60;8.77;;;19.30;1.00;;;;;;5039766;28;20212;-85
2021/09/20 12:15:43;;;;;;;12.27;9.20;;;19.30;1.00;;;;;;5037542;28;20177;-85
2021/09/20 12:18:16;;;;;;;10.77;8.90;;;19.30;1.00;;;;;;5040313;28;20539;-86
2021/09/20 12:20:48;;;;;;;13.67;8.73;;;19.40;1.00;;;;;;5041603;28;20174;-85
2021/09/20 12:23:21;;;;;;;11.73;8.97;;;19.30;1.00;;;;;;5038225;28;20247;-85
2021/09/20 12:25:54;;;;;;;11.33;7.90;;;19.40;1.00;;;;;;5038149;28;20180;-86
2021/09/20 12:28:32;;;;;;;11.43;8.17;;;19.50;1.00;;;;;;5046864;28;20169;-82
2021/09/20 12:31:15;;;;;;;9.93;7.47;;;19.50;1.00;;;;;;5058833;28;20178;-85
2021/09/20 12:34:01;;;;;;;10.27;7.87;;;19.60;1.00;;;;;;5057413;28;20186;-84
2021/09/20 12:36:32;;;;;;;8.73;7.83;;;19.60;1.00;;;;;;5059707;28;20196;-87
2021/09/20 12:39:19;;;;;;;13.33;8.53;;;19.40;1.00;;;;;;5056704;28;20169;-85
2021/09/20 12:42:06;;;;;;;12.00;9.10;;;19.20;1.00;;;;;;5047255;28;20168;-83
2021/09/20 12:44:32;;;;;;;12.97;9.83;;;19.40;1.00;;;;;;5044171;28;20174;-84
2021/09/20 12:47:05;;;;;;;12.83;9.40;;;19.60;1.00;;;;;;5038816;28;20212;-84
2021/09/20 12:49:33;;;;;;;11.50;9.00;;;19.70;1.00;;;;;;5037334;28;20205;-85